West Hallock, Illinois
Current Conditions -  °F | °C
As of 5:35 PM on Wednesday 22 Oct 2014 (Local Time) from KC75 Reporting Station
Clear Clear  
Wind Chill: 57°   Ceiling: Unl
Heat Index: 57°   Visibility: 10mi
Dew Point: 34°   Wind: 6mph
Humidity: 42%   Direction: 130°SE
Pressure: 30.23"   Gusts: NA
Location:  40.9686°N, 89.597°W
Report Text: KC75 222235Z AUTO 13005KT 10SM CLR 14/01 A3023 RMK AO2 T01410013
Loading
Personal Weather Stations






























Interactive Weather Map
Tropical Storm Tracking
New forecast layout! Learn more

10-Day Weather Forecast

Advertisements
Track Severe Weather on mobile